createdAt,value
2023-05-15T00:01:47.149Z,12.67
2023-05-15T00:04:15.253Z,14.63
2023-05-15T00:06:45.744Z,12.53
2023-05-15T00:09:13.897Z,13.97
2023-05-15T00:11:44.660Z,15.47
2023-05-15T00:14:13.149Z,12.30
2023-05-15T00:16:41.859Z,13.27
2023-05-15T00:19:10.129Z,11.87
2023-05-15T00:21:38.512Z,11.80
2023-05-15T00:24:06.938Z,13.70
2023-05-15T00:26:35.408Z,12.30
2023-05-15T00:29:03.970Z,12.70
2023-05-15T00:31:33.925Z,13.53
2023-05-15T00:34:01.982Z,10.80
2023-05-15T00:36:30.548Z,11.67
2023-05-15T00:39:00.747Z,10.80
2023-05-15T00:41:34.958Z,11.30
2023-05-15T00:44:03.819Z,12.30
2023-05-15T00:46:33.608Z,11.57
2023-05-15T00:49:04.016Z,12.90
2023-05-15T00:51:32.760Z,12.77
2023-05-15T00:54:01.098Z,11.77
2023-05-15T00:56:31.028Z,12.53
2023-05-15T00:59:00.379Z,11.77
2023-05-15T01:01:33.722Z,11.17
2023-05-15T01:04:07.091Z,11.83
2023-05-15T01:06:35.963Z,14.13
2023-05-15T01:09:12.253Z,14.67
2023-05-15T01:11:42.860Z,12.03
2023-05-15T01:14:11.277Z,11.80
2023-05-15T01:16:39.680Z,12.70
2023-05-15T01:19:08.126Z,12.50
2023-05-15T01:21:43.310Z,13.20
2023-05-15T01:24:20.411Z,18.00
2023-05-15T01:27:10.218Z,13.43
2023-05-15T01:29:50.922Z,14.00
2023-05-15T01:32:25.859Z,14.67
2023-05-15T01:35:17.366Z,13.80
2023-05-15T01:37:50.231Z,13.17
2023-05-15T01:40:20.202Z,13.50
2023-05-15T01:42:54.708Z,14.43
2023-05-15T01:45:25.381Z,16.73
2023-05-15T01:47:55.028Z,14.43
2023-05-15T01:50:23.588Z,15.83
2023-05-15T01:52:55.071Z,15.30
2023-05-15T01:55:24.550Z,14.13
2023-05-15T01:57:53.057Z,13.33
2023-05-15T02:00:22.903Z,15.47
2023-05-15T02:02:51.386Z,16.03
2023-05-15T02:05:19.848Z,15.07
2023-05-15T02:07:48.569Z,14.50
2023-05-15T02:10:18.623Z,15.87
2023-05-15T02:12:47.259Z,15.17
2023-05-15T02:15:17.668Z,14.90
2023-05-15T02:17:47.097Z,14.57
2023-05-15T02:20:15.589Z,14.40
2023-05-15T02:22:44.385Z,15.77
2023-05-15T02:25:12.660Z,15.13
2023-05-15T02:27:58.374Z,15.33
2023-05-15T02:30:39.286Z,13.93
2023-05-15T02:33:25.943Z,11.37
2023-05-15T02:36:07.897Z,10.07
2023-05-15T02:38:47.785Z,8.97
2023-05-15T02:41:17.118Z,10.03
2023-05-15T02:43:46.466Z,9.10
2023-05-15T02:46:15.841Z,9.00
2023-05-15T02:48:44.517Z,8.73
2023-05-15T02:51:12.829Z,8.17
2023-05-15T02:53:42.324Z,8.40
2023-05-15T02:56:10.635Z,8.30
2023-05-15T02:58:39.774Z,8.10
2023-05-15T03:01:07.962Z,7.40
2023-05-15T03:03:37.018Z,7.40
2023-05-15T03:06:05.171Z,7.65
2023-05-15T03:08:33.404Z,7.15
2023-05-15T03:11:01.592Z,6.85
2023-05-15T03:13:29.667Z,7.20
2023-05-15T03:15:57.676Z,7.10
2023-05-15T03:18:26.001Z,8.55
2023-05-15T03:20:54.201Z,7.93
2023-05-15T03:23:22.356Z,9.02
2023-05-15T03:25:51.219Z,7.80
2023-05-15T03:28:19.541Z,9.45
2023-05-15T03:30:47.661Z,9.43
2023-05-15T03:33:16.445Z,9.75
2023-05-15T03:35:45.098Z,10.38
2023-05-15T03:38:13.293Z,9.52
2023-05-15T03:40:41.717Z,10.25
2023-05-15T03:43:11.669Z,9.38
2023-05-15T03:45:40.207Z,9.38
2023-05-15T03:48:08.588Z,9.45
2023-05-15T03:50:37.276Z,9.95
2023-05-15T03:53:05.501Z,10.23
2023-05-15T03:55:33.713Z,10.00
2023-05-15T03:58:02.293Z,10.02
2023-05-15T04:00:30.315Z,10.23
2023-05-15T04:02:58.788Z,10.00
2023-05-15T04:05:26.926Z,11.32
2023-05-15T04:07:55.334Z,11.50
2023-05-15T04:10:23.428Z,10.70
2023-05-15T04:12:52.338Z,11.00
2023-05-15T04:15:24.966Z,10.93
2023-05-15T04:17:57.349Z,11.30
2023-05-15T04:20:27.098Z,10.15
2023-05-15T04:22:55.192Z,10.30
2023-05-15T04:25:24.808Z,10.43
2023-05-15T04:27:53.682Z,10.32
2023-05-15T04:30:22.165Z,10.50
2023-05-15T04:32:52.185Z,12.75
2023-05-15T04:35:21.417Z,11.90
2023-05-15T04:37:49.871Z,12.85
2023-05-15T04:40:18.374Z,10.85
2023-05-15T04:42:46.656Z,10.90
2023-05-15T04:45:15.234Z,11.05
2023-05-15T04:47:43.428Z,10.60
2023-05-15T04:50:11.996Z,11.18
2023-05-15T04:52:40.495Z,10.18
2023-05-15T04:55:09.876Z,10.07
2023-05-15T04:57:38.234Z,11.02
2023-05-15T05:00:12.838Z,10.23
2023-05-15T05:02:43.411Z,10.23
2023-05-15T05:05:11.853Z,10.35
2023-05-15T05:07:40.521Z,10.68
2023-05-15T05:10:09.659Z,12.38
2023-05-15T05:12:38.958Z,11.43
2023-05-15T05:15:08.175Z,12.80
2023-05-15T05:17:36.354Z,12.27
2023-05-15T05:20:05.254Z,14.43
2023-05-15T05:22:34.255Z,12.52
2023-05-15T05:25:03.915Z,12.60
2023-05-15T05:27:33.185Z,11.85
2023-05-15T05:30:01.476Z,11.38
2023-05-15T05:32:30.697Z,12.13
2023-05-15T05:34:58.876Z,12.25
2023-05-15T05:37:27.393Z,11.93
2023-05-15T05:39:55.547Z,12.27
2023-05-15T05:42:23.747Z,12.13
2023-05-15T05:44:51.726Z,12.70
2023-05-15T05:47:45.217Z,10.75
2023-05-15T05:50:13.274Z,11.60
2023-05-15T05:52:42.260Z,10.90
2023-05-15T05:55:10.862Z,10.98
2023-05-15T05:57:39.474Z,10.38
2023-05-15T06:00:12.623Z,9.57
2023-05-15T06:02:41.182Z,9.48
2023-05-15T06:05:09.626Z,8.77
2023-05-15T06:07:37.726Z,9.45
2023-05-15T06:10:10.014Z,9.50
2023-05-15T06:12:38.379Z,9.45
2023-05-15T06:15:08.083Z,9.40
2023-05-15T06:17:36.876Z,9.32
2023-05-15T06:20:12.389Z,9.68
2023-05-15T06:22:42.487Z,8.98
2023-05-15T06:25:15.078Z,9.18
2023-05-15T06:27:43.941Z,8.70
2023-05-15T06:30:12.713Z,9.50
2023-05-15T06:32:42.273Z,8.70
2023-05-15T06:35:10.945Z,9.50
2023-05-15T06:37:39.820Z,8.95
2023-05-15T06:40:09.166Z,9.35
2023-05-15T06:42:37.422Z,8.77
2023-05-15T06:45:06.192Z,10.13
2023-05-15T06:47:34.514Z,9.45
2023-05-15T06:50:02.738Z,9.13
2023-05-15T06:52:31.712Z,9.00
2023-05-15T06:55:00.106Z,9.52
2023-05-15T06:57:28.292Z,9.05
2023-05-15T06:59:56.868Z,8.80
2023-05-15T07:02:25.909Z,9.50
2023-05-15T07:05:15.316Z,8.73
2023-05-15T07:07:43.840Z,9.30
2023-05-15T07:10:12.014Z,10.27
2023-05-15T07:12:41.056Z,10.93
2023-05-15T07:15:09.856Z,10.32
2023-05-15T07:17:38.284Z,10.48
2023-05-15T07:20:07.132Z,10.80
2023-05-15T07:22:44.619Z,10.00
2023-05-15T07:25:17.179Z,9.45
2023-05-15T07:27:46.033Z,12.35
2023-05-15T07:30:14.543Z,9.13
2023-05-15T07:32:52.702Z,9.27
2023-05-15T07:35:27.121Z,8.55
2023-05-15T07:37:55.794Z,8.63
2023-05-15T07:40:24.224Z,7.82
2023-05-15T07:42:52.456Z,7.85
2023-05-15T07:45:21.278Z,7.57
2023-05-15T07:47:50.192Z,8.23
2023-05-15T07:50:18.806Z,7.32
2023-05-15T07:52:46.990Z,7.40
2023-05-15T07:55:15.259Z,8.65
2023-05-15T07:57:43.725Z,7.93
2023-05-15T08:00:12.491Z,7.47
2023-05-15T08:02:41.276Z,8.55
2023-05-15T08:05:09.680Z,8.85
2023-05-15T08:07:38.076Z,7.80
2023-05-15T08:10:07.908Z,7.97
2023-05-15T08:12:36.411Z,7.35
2023-05-15T08:15:05.425Z,7.97
2023-05-15T08:17:34.058Z,7.55
2023-05-15T08:20:02.119Z,7.95
2023-05-15T08:22:33.570Z,7.22
2023-05-15T08:25:04.180Z,6.18
2023-05-15T08:27:33.534Z,6.43
2023-05-15T08:30:01.809Z,6.25
2023-05-15T08:32:30.576Z,6.35
2023-05-15T08:34:58.761Z,5.45
2023-05-15T08:37:26.813Z,5.40
2023-05-15T08:39:54.894Z,4.75
2023-05-15T08:42:30.729Z,4.88
2023-05-15T08:45:00.305Z,3.67
2023-05-15T08:47:32.770Z,3.53
2023-05-15T08:50:07.125Z,3.28
2023-05-15T08:52:35.631Z,4.07
2023-05-15T08:55:04.509Z,2.90
2023-05-15T08:57:34.128Z,2.53
2023-05-15T09:00:06.094Z,2.70
2023-05-15T09:02:37.836Z,2.70
2023-05-15T09:05:06.705Z,3.67
2023-05-15T09:07:36.015Z,3.63
2023-05-15T09:10:04.750Z,2.80
2023-05-15T09:12:35.112Z,3.10
2023-05-15T09:15:13.486Z,3.05
2023-05-15T09:17:43.658Z,3.47
2023-05-15T09:20:30.794Z,5.50
2023-05-15T09:23:00.921Z,3.17
2023-05-15T09:25:41.902Z,2.90
2023-05-15T09:28:26.782Z,2.92
2023-05-15T09:31:00.480Z,2.90
2023-05-15T09:33:34.236Z,2.88
2023-05-15T09:36:06.994Z,3.20
2023-05-15T09:38:43.432Z,2.65
2023-05-15T09:41:12.141Z,2.75
2023-05-15T09:43:43.420Z,6.13
2023-05-15T09:46:13.520Z,2.63
2023-05-15T09:48:41.710Z,2.50
2023-05-15T09:51:19.961Z,3.17
2023-05-15T09:53:53.205Z,2.58
2023-05-15T09:56:22.809Z,2.53
2023-05-15T09:58:58.967Z,2.25
2023-05-15T10:01:28.035Z,2.60
2023-05-15T10:04:03.842Z,2.22
2023-05-15T10:06:42.023Z,2.45
2023-05-15T10:09:11.860Z,2.50
2023-05-15T10:11:44.376Z,2.65
2023-05-15T10:14:14.411Z,3.80
2023-05-15T10:16:42.821Z,2.08
2023-05-15T10:19:12.244Z,2.30
2023-05-15T10:21:42.160Z,2.72
2023-05-15T10:24:11.690Z,3.05
2023-05-15T10:26:41.474Z,3.15
2023-05-15T10:29:14.050Z,3.30
2023-05-15T10:31:42.784Z,3.38
2023-05-15T10:34:12.529Z,3.63
2023-05-15T10:36:43.315Z,3.92
2023-05-15T10:39:12.300Z,3.58
2023-05-15T10:41:41.119Z,3.22
2023-05-15T10:44:10.509Z,3.53
2023-05-15T10:46:39.273Z,3.22
2023-05-15T10:49:07.797Z,3.00
2023-05-15T10:51:38.158Z,2.95
2023-05-15T10:54:06.736Z,6.35
2023-05-15T10:56:39.020Z,3.00
2023-05-15T10:59:09.562Z,3.50
2023-05-15T11:01:39.722Z,3.00
2023-05-15T11:04:15.859Z,3.15
2023-05-15T11:06:46.204Z,2.90
2023-05-15T11:09:27.241Z,2.88
2023-05-15T11:11:58.154Z,2.70
2023-05-15T11:14:35.570Z,3.13
2023-05-15T11:17:08.721Z,2.70
2023-05-15T11:19:56.175Z,3.30
2023-05-15T11:22:37.060Z,3.70
2023-05-15T11:25:09.487Z,3.50
2023-05-15T11:27:38.253Z,2.92
2023-05-15T11:30:18.459Z,3.10
2023-05-15T11:32:55.760Z,3.00
2023-05-15T11:35:42.692Z,3.00
2023-05-15T11:38:10.961Z,2.95
2023-05-15T11:40:53.076Z,3.30
2023-05-15T11:43:26.245Z,2.95
2023-05-15T11:46:11.341Z,2.70
2023-05-15T11:48:48.212Z,2.42
2023-05-15T11:51:26.247Z,3.00
2023-05-15T11:53:56.098Z,2.70
2023-05-15T11:56:26.254Z,3.17
2023-05-15T11:58:59.343Z,3.22
2023-05-15T12:01:28.638Z,3.30
2023-05-15T12:03:56.976Z,2.90
2023-05-15T12:06:25.479Z,2.70
2023-05-15T12:08:54.461Z,2.90
2023-05-15T12:11:25.921Z,2.78
2023-05-15T12:13:55.207Z,3.15
2023-05-15T12:16:27.469Z,3.10
2023-05-15T12:18:57.888Z,3.40
2023-05-15T12:21:29.589Z,3.03
2023-05-15T12:24:07.531Z,2.75
2023-05-15T12:26:37.816Z,2.80
2023-05-15T12:29:06.329Z,2.78
2023-05-15T12:31:35.358Z,3.17
2023-05-15T12:34:03.743Z,3.40
2023-05-15T12:36:32.174Z,3.25
2023-05-15T12:39:06.840Z,3.15
2023-05-15T12:41:38.932Z,3.40
2023-05-15T12:44:07.684Z,4.10
2023-05-15T12:46:36.542Z,3.15
2023-05-15T12:49:04.915Z,3.78
2023-05-15T12:51:33.439Z,3.40
2023-05-15T12:54:01.690Z,3.53
2023-05-15T12:56:30.931Z,3.85
2023-05-15T12:58:59.116Z,3.50
2023-05-15T13:01:29.819Z,3.33
2023-05-15T13:03:59.422Z,3.95
2023-05-15T13:06:41.985Z,3.58
2023-05-15T13:09:14.517Z,3.63
2023-05-15T13:11:45.750Z,3.33
2023-05-15T13:14:17.914Z,3.33
2023-05-15T13:16:47.816Z,3.95
2023-05-15T13:19:17.482Z,3.33
2023-05-15T13:21:46.407Z,3.55
2023-05-15T13:24:15.445Z,3.72
2023-05-15T13:26:43.865Z,2.92
2023-05-15T13:29:12.006Z,3.30
2023-05-15T13:31:53.284Z,3.47
2023-05-15T13:34:21.679Z,3.30
2023-05-15T13:36:49.977Z,3.63
2023-05-15T13:39:18.148Z,3.38
2023-05-15T13:41:46.761Z,3.22
2023-05-15T13:44:15.530Z,3.60
2023-05-15T13:46:44.388Z,3.55
2023-05-15T13:49:12.771Z,3.22
2023-05-15T13:51:43.565Z,3.20
2023-05-15T13:54:12.322Z,3.05
2023-05-15T13:56:41.384Z,2.88
2023-05-15T13:59:10.085Z,3.10
2023-05-15T14:01:48.211Z,2.58
2023-05-15T14:04:17.116Z,2.70
2023-05-15T14:06:45.225Z,2.83
2023-05-15T14:09:13.440Z,3.20
2023-05-15T14:11:41.608Z,2.72
2023-05-15T14:14:10.025Z,3.28
2023-05-15T14:16:38.215Z,3.78
2023-05-15T14:19:07.082Z,3.03
2023-05-15T14:21:35.445Z,3.13
2023-05-15T14:24:05.149Z,3.67
2023-05-15T14:26:45.975Z,3.15
2023-05-15T14:29:14.684Z,4.40
2023-05-15T14:31:44.446Z,4.13
2023-05-15T14:34:12.654Z,4.25
2023-05-15T14:36:47.200Z,4.65
2023-05-15T14:39:16.215Z,4.68
2023-05-15T14:41:44.931Z,4.45
2023-05-15T14:44:12.951Z,3.95
2023-05-15T14:46:43.284Z,3.50
2023-05-15T14:49:11.461Z,3.65
2023-05-15T14:51:40.246Z,4.40
2023-05-15T14:54:08.353Z,4.00
2023-05-15T14:56:37.268Z,4.13
2023-05-15T14:59:05.936Z,4.20
2023-05-15T15:01:43.951Z,4.05
2023-05-15T15:04:15.017Z,4.10
2023-05-15T15:06:44.604Z,4.00
2023-05-15T15:09:13.795Z,4.72
2023-05-15T15:11:44.924Z,4.13
2023-05-15T15:14:15.547Z,3.60
2023-05-15T15:16:44.613Z,3.78
2023-05-15T15:19:17.398Z,4.40
2023-05-15T15:21:47.445Z,4.25
2023-05-15T15:24:16.755Z,3.60
2023-05-15T15:26:45.153Z,4.25
2023-05-15T15:29:17.538Z,3.75
2023-05-15T15:31:46.641Z,4.13
2023-05-15T15:34:15.225Z,3.10
2023-05-15T15:36:44.241Z,3.38
2023-05-15T15:39:13.361Z,4.03
2023-05-15T15:41:41.878Z,4.18
2023-05-15T15:44:10.047Z,4.10
2023-05-15T15:46:38.219Z,5.00
2023-05-15T15:49:06.952Z,4.15
2023-05-15T15:51:36.617Z,3.88
2023-05-15T15:54:05.328Z,3.10
2023-05-15T15:56:33.953Z,5.20
2023-05-15T15:59:03.258Z,3.22
2023-05-15T16:01:33.364Z,3.60
2023-05-15T16:04:01.719Z,4.25
2023-05-15T16:06:30.123Z,4.30
2023-05-15T16:08:58.595Z,4.65
2023-05-15T16:11:26.921Z,6.00
2023-05-15T16:13:55.613Z,5.63
2023-05-15T16:16:24.759Z,4.85
2023-05-15T16:18:55.152Z,3.92
2023-05-15T16:21:24.529Z,4.20
2023-05-15T16:23:53.258Z,3.83
2023-05-15T16:26:21.771Z,4.15
2023-05-15T16:28:51.393Z,4.25
2023-05-15T16:31:21.603Z,18.40
2023-05-15T16:33:55.722Z,23.02
2023-05-15T16:36:24.272Z,9.90
2023-05-15T16:38:52.616Z,8.05
2023-05-15T16:41:21.973Z,14.10
2023-05-15T16:43:50.647Z,10.35
2023-05-15T16:46:20.227Z,14.20
2023-05-15T16:48:48.960Z,15.85
2023-05-15T16:51:17.452Z,12.98
2023-05-15T16:53:46.046Z,17.88
2023-05-15T16:56:14.491Z,22.40
2023-05-15T16:58:46.073Z,9.27
2023-05-15T17:01:14.728Z,38.10
2023-05-15T17:03:44.205Z,11.37
2023-05-15T17:06:12.487Z,23.27
2023-05-15T17:08:43.084Z,15.13
2023-05-15T17:11:12.120Z,11.80
2023-05-15T17:13:41.101Z,15.57
2023-05-15T17:16:09.473Z,13.33
2023-05-15T17:18:40.113Z,10.63
2023-05-15T17:21:08.115Z,10.27
2023-05-15T17:23:36.371Z,10.37
2023-05-15T17:26:04.637Z,18.97
2023-05-15T17:28:35.196Z,11.57
2023-05-15T17:31:12.792Z,7.20
2023-05-15T17:33:42.145Z,9.20
2023-05-15T17:36:10.917Z,12.43
2023-05-15T17:38:39.288Z,11.53
2023-05-15T17:41:07.954Z,16.07
2023-05-15T17:43:36.351Z,10.80
2023-05-15T17:46:06.032Z,8.30
2023-05-15T17:48:34.553Z,16.87
2023-05-15T17:51:02.660Z,11.83
2023-05-15T17:53:32.573Z,28.60
2023-05-15T17:56:01.455Z,11.83
2023-05-15T17:58:30.914Z,12.20
2023-05-15T18:00:59.617Z,8.97
2023-05-15T18:03:27.647Z,18.33
2023-05-15T18:05:56.134Z,27.07
2023-05-15T18:08:24.145Z,10.13
2023-05-15T18:10:52.344Z,29.57
2023-05-15T18:13:21.303Z,9.97
2023-05-15T18:15:49.656Z,18.93
2023-05-15T18:18:17.712Z,13.77
2023-05-15T18:20:46.386Z,12.23
2023-05-15T18:23:15.686Z,17.13
2023-05-15T18:25:44.071Z,17.77
2023-05-15T18:28:13.329Z,12.57
2023-05-15T18:30:42.592Z,26.63
2023-05-15T18:33:14.761Z,18.13
2023-05-15T18:35:43.185Z,24.40
2023-05-15T18:38:15.394Z,64.33
2023-05-15T18:40:46.930Z,22.83
2023-05-15T18:43:16.153Z,13.37
2023-05-15T18:45:44.295Z,11.93
2023-05-15T18:48:13.689Z,12.87
2023-05-15T18:50:42.150Z,10.37
2023-05-15T18:53:10.393Z,7.17
2023-05-15T18:55:39.773Z,16.30
2023-05-15T18:58:08.279Z,16.70
2023-05-15T19:00:38.996Z,17.47
2023-05-15T19:03:09.011Z,14.37
2023-05-15T19:05:38.388Z,9.77
2023-05-15T19:08:07.515Z,8.37
2023-05-15T19:10:38.699Z,18.80
2023-05-15T19:13:07.187Z,15.17
2023-05-15T19:15:35.534Z,15.70
2023-05-15T19:18:04.020Z,12.37
2023-05-15T19:20:32.829Z,12.47
2023-05-15T19:23:01.153Z,12.27
2023-05-15T19:25:29.773Z,9.83
2023-05-15T19:27:58.151Z,9.47
2023-05-15T19:30:26.791Z,10.13
2023-05-15T19:32:55.570Z,12.20
2023-05-15T19:35:24.712Z,11.40
2023-05-15T19:37:53.130Z,11.70
2023-05-15T19:40:21.791Z,11.43
2023-05-15T19:42:50.075Z,9.67
2023-05-15T19:45:18.336Z,10.60
2023-05-15T19:47:46.635Z,11.93
2023-05-15T19:50:15.276Z,7.80
2023-05-15T19:52:45.192Z,9.53
2023-05-15T19:55:17.088Z,8.93
2023-05-15T19:57:45.454Z,7.70
2023-05-15T20:00:14.457Z,8.33
2023-05-15T20:02:45.583Z,8.50
2023-05-15T20:05:15.681Z,8.23
2023-05-15T20:07:44.149Z,9.17
2023-05-15T20:10:12.610Z,8.63
2023-05-15T20:12:43.220Z,8.53
2023-05-15T20:15:14.798Z,9.30
2023-05-15T20:17:43.555Z,10.67
2023-05-15T20:20:12.591Z,7.90
2023-05-15T20:22:45.295Z,7.67
2023-05-15T20:25:15.705Z,7.93
2023-05-15T20:27:44.199Z,7.53
2023-05-15T20:30:12.621Z,7.33
2023-05-15T20:32:41.702Z,7.17
2023-05-15T20:35:11.268Z,6.67
2023-05-15T20:40:27.753Z,7.00
2023-05-15T20:42:57.473Z,6.47
2023-05-15T20:45:26.330Z,7.37
2023-05-15T20:47:56.451Z,7.27
2023-05-15T20:50:25.137Z,7.17
2023-05-15T20:52:53.884Z,6.87
2023-05-15T20:55:22.743Z,8.43
2023-05-15T20:57:51.232Z,6.87
2023-05-15T21:00:19.653Z,6.60
2023-05-15T21:02:48.189Z,6.23
2023-05-15T21:05:16.567Z,6.17
2023-05-15T21:07:45.115Z,6.43
2023-05-15T21:10:13.888Z,6.53
2023-05-15T21:12:43.175Z,5.87
2023-05-15T21:15:29.180Z,6.93
2023-05-15T21:17:57.521Z,6.43
2023-05-15T21:20:27.775Z,6.17
2023-05-15T21:22:56.129Z,6.07
2023-05-15T21:25:24.108Z,6.37
2023-05-15T21:27:52.372Z,5.77
2023-05-15T21:30:21.195Z,5.63
2023-05-15T21:32:49.429Z,5.60
2023-05-15T21:35:18.156Z,6.33
2023-05-15T21:37:46.727Z,5.50
2023-05-15T21:40:15.296Z,5.73
2023-05-15T21:42:44.022Z,6.27
2023-05-15T21:45:12.209Z,6.47
2023-05-15T21:47:41.498Z,7.27
2023-05-15T21:50:10.227Z,6.30
2023-05-15T21:52:40.523Z,6.13
2023-05-15T21:55:12.268Z,6.90
2023-05-15T21:57:40.845Z,6.17
2023-05-15T22:00:09.799Z,6.80
2023-05-15T22:02:39.268Z,9.40
2023-05-15T22:05:10.403Z,9.37
2023-05-15T22:07:39.282Z,8.20
2023-05-15T22:10:08.540Z,7.73
2023-05-15T22:12:38.183Z,7.10
2023-05-15T22:15:07.703Z,6.83
2023-05-15T22:17:37.388Z,6.20
2023-05-15T22:20:14.166Z,5.50
2023-05-15T22:22:42.874Z,5.13
2023-05-15T22:25:14.524Z,5.27
2023-05-15T22:27:43.022Z,4.70
2023-05-15T22:30:11.409Z,4.70
2023-05-15T22:32:41.451Z,4.47
2023-05-15T22:35:10.215Z,4.53
2023-05-15T22:37:41.166Z,4.20
2023-05-15T22:40:11.257Z,4.70
2023-05-15T22:42:41.784Z,4.83
2023-05-15T22:45:10.977Z,5.20
2023-05-15T22:47:56.697Z,7.60
2023-05-15T22:50:24.887Z,5.23
2023-05-15T22:52:53.911Z,5.90
2023-05-15T22:55:23.377Z,5.67
2023-05-15T22:57:51.568Z,4.97
2023-05-15T23:00:19.960Z,5.20
2023-05-15T23:02:48.617Z,5.37
2023-05-15T23:05:17.307Z,5.80
2023-05-15T23:07:45.545Z,6.40
2023-05-15T23:10:14.918Z,6.23
2023-05-15T23:12:43.600Z,6.73
2023-05-15T23:15:12.257Z,5.77
2023-05-15T23:17:40.713Z,6.20
2023-05-15T23:20:13.325Z,6.27
2023-05-15T23:22:41.801Z,6.20
2023-05-15T23:25:10.963Z,6.03
2023-05-15T23:27:41.993Z,6.23
2023-05-15T23:30:12.899Z,7.33
2023-05-15T23:32:41.164Z,6.23
2023-05-15T23:35:09.717Z,5.67
2023-05-15T23:37:38.525Z,6.47
2023-05-15T23:40:07.477Z,6.10
2023-05-15T23:42:35.897Z,5.63
2023-05-15T23:45:04.289Z,6.23
2023-05-15T23:47:32.709Z,5.77
2023-05-15T23:50:01.167Z,5.87
2023-05-15T23:52:29.758Z,5.93
2023-05-15T23:54:58.063Z,5.87
2023-05-15T23:57:26.361Z,5.60
2023-05-15T23:59:54.591Z,8.80
